EDT,Max TemperatureF,Mean TemperatureF,Min TemperatureF,Max Dew PointF,MeanDew PointF,Min DewpointF,Max Humidity, Mean Humidity, Min Humidity, Max Sea Level PressureIn, Mean Sea Level PressureIn, Min Sea Level PressureIn, Max VisibilityMiles, Mean VisibilityMiles, Min VisibilityMiles, Max Wind SpeedMPH, Mean Wind SpeedMPH, Max Gust SpeedMPH,PrecipitationIn, CloudCover, Events, WindDirDegrees
2013-3-1,54,47,40,37,33,29,85,63,41,30.07,30.03,30.00,10,10,8,13,4,16,0.00,3,,327
2013-3-2,50,43,35,33,29,26,82,64,45,30.10,30.06,30.04,10,10,9,10,4,20,0.00,5,,306
2013-3-3,49,41,33,29,26,23,75,56,36,30.18,30.11,30.07,10,10,10,12,4,20,0.00,5,,295
2013-3-4,66,49,31,36,27,18,85,52,19,30.27,30.20,30.15,10,10,10,12,2,14,0.00,0,,330
2013-3-5,73,59,44,59,51,35,84,68,52,30.16,30.02,29.91,10,10,3,18,8,28,0.03,4,Rain,210
2013-3-6,59,50,41,41,29,24,78,54,30,30.20,30.11,30.02,10,10,10,15,7,25,0.00,0,,311
2013-3-7,65,50,34,36,32,29,82,55,28,30.30,30.25,30.20,10,9,6,14,2,16,0.00,0,,346
2013-3-8,73,54,35,38,32,26,89,53,17,30.30,30.25,30.20,10,7,2,13,2,16,0.00,0,,14
2013-3-9,73,56,39,44,36,30,85,54,22,30.33,30.26,30.22,10,9,5,13,5,17,0.00,0,,91
2013-3-10,81,67,52,51,48,42,83,58,33,30.24,30.17,30.11,10,10,10,20,6,24,0.00,1,,135
2013-3-11,78,66,54,59,53,50,86,63,39,30.15,30.02,29.87,10,10,10,22,9,31,0.03,4,Rain,164
2013-3-12,66,58,49,63,52,40,93,69,44,30.09,29.93,29.82,10,8,2,9,4,,0.29,7,Rain,200
2013-3-13,71,56,40,40,32,25,85,53,20,30.26,30.19,30.12,10,10,10,13,4,23,0.00,0,,318
2013-3-14,63,51,38,33,25,22,79,50,20,30.39,30.31,30.25,10,10,9,17,4,22,0.00,0,,9
2013-3-15,76,57,37,41,34,25,85,52,19,30.33,30.25,30.15,10,8,4,7,2,,0.00,0,,215
2013-3-16,82,62,42,54,46,38,78,71,64,30.19,30.11,30.02,10,10,8,14,4,23,0.00,0,,217
2013-3-17,78,67,55,57,54,50,93,70,46,30.12,30.08,30.04,10,5,0,13,4,17,0.01,6,Fog-Rain,191
2013-3-18,84,72,59,63,59,55,90,69,47,30.06,29.99,29.89,10,10,7,21,5,28,0.26,6,Rain,184
2013-3-19,79,65,51,59,56,47,90,65,39,30.06,30.00,29.89,10,8,2,21,4,25,0.37,5,Rain-Thunderstorm,18
2013-3-20,70,59,47,48,37,31,89,57,24,30.10,30.01,29.92,10,10,10,14,5,16,T,3,,16
2013-3-21,68,55,41,34,27,19,70,43,16,30.03,29.97,29.94,10,10,10,12,3,18,0.00,1,,307
2013-3-22,70,58,45,42,31,23,76,49,22,30.10,30.03,29.98,10,10,9,13,6,18,0.00,4,,81
2013-3-23,63,59,54,58,53,40,90,75,59,30.03,29.89,29.81,10,7,1,16,5,20,0.54,8,Rain-Thunderstorm,81
2013-3-24,89,74,58,70,62,52,90,63,36,29.78,29.63,29.55,10,7,0,17,7,31,0.62,6,Fog-Rain-Thunderstorm,197
2013-3-25,63,54,44,46,29,19,62,43,23,30.11,29.94,29.75,10,10,10,15,7,25,0.14,0,,306
2013-3-26,57,47,36,29,25,20,64,47,29,30.32,30.21,30.13,10,10,10,13,5,24,0.00,0,,302
2013-3-27,62,48,33,34,28,24,79,52,25,30.38,30.33,30.28,10,10,8,14,3,20,0.00,0,,353
2013-3-28,69,53,36,37,31,24,89,55,20,30.38,30.32,30.26,10,8,5,17,3,21,0.00,0,,3
2013-3-29,76,58,39,44,36,30,86,53,19,30.38,30.31,30.23,10,9,5,8,1,13,0.00,0,,143
2013-3-30,79,62,45,49,44,40,89,59,28,30.28,30.22,30.14,10,9,5,12,4,20,0.00,0,,188
2013-3-31,82,70,57,59,54,46,86,66,45,30.14,30.07,29.96,10,10,6,16,7,28,0.00,3,,201